sensor_id;sensor_type;location;lat;lon;timestamp;P1;durP1;ratioP1;P2;durP2;ratioP2
35442;SDS011;21561;55.654;37.592;2023-06-01T00:01:29;10.60;;;3.00;;
35442;SDS011;21561;55.654;37.592;2023-06-01T00:03:59;10.27;;;2.53;;
35442;SDS011;21561;55.654;37.592;2023-06-01T00:06:26;9.10;;;2.60;;
35442;SDS011;21561;55.654;37.592;2023-06-01T00:08:54;10.55;;;3.00;;
35442;SDS011;21561;55.654;37.592;2023-06-01T00:11:21;10.07;;;2.88;;
35442;SDS011;21561;55.654;37.592;2023-06-01T00:13:50;10.25;;;2.58;;
35442;SDS011;21561;55.654;37.592;2023-06-01T00:16:18;9.20;;;2.72;;
35442;SDS011;21561;55.654;37.592;2023-06-01T00:18:45;12.00;;;2.85;;
35442;SDS011;21561;55.654;37.592;2023-06-01T00:21:12;8.20;;;2.63;;
35442;SDS011;21561;55.654;37.592;2023-06-01T00:23:39;9.60;;;2.60;;
35442;SDS011;21561;55.654;37.592;2023-06-01T00:26:09;8.70;;;2.53;;
35442;SDS011;21561;55.654;37.592;2023-06-01T00:28:36;9.68;;;2.72;;
35442;SDS011;21561;55.654;37.592;2023-06-01T00:31:02;23.17;;;2.60;;
35442;SDS011;21561;55.654;37.592;2023-06-01T00:33:30;8.00;;;2.50;;
35442;SDS011;21561;55.654;37.592;2023-06-01T00:35:57;11.13;;;2.65;;
35442;SDS011;21561;55.654;37.592;2023-06-01T00:38:23;7.82;;;2.38;;
35442;SDS011;21561;55.654;37.592;2023-06-01T00:40:50;8.82;;;2.10;;
35442;SDS011;21561;55.654;37.592;2023-06-01T00:43:17;9.85;;;2.60;;
35442;SDS011;21561;55.654;37.592;2023-06-01T00:45:45;12.02;;;2.95;;
35442;SDS011;21561;55.654;37.592;2023-06-01T00:48:12;11.45;;;2.55;;
35442;SDS011;21561;55.654;37.592;2023-06-01T00:50:41;8.80;;;2.45;;
35442;SDS011;21561;55.654;37.592;2023-06-01T00:53:12;7.80;;;2.53;;
35442;SDS011;21561;55.654;37.592;2023-06-01T00:55:43;6.70;;;2.40;;
35442;SDS011;21561;55.654;37.592;2023-06-01T00:58:11;12.63;;;2.63;;
35442;SDS011;21561;55.654;37.592;2023-06-01T01:00:39;10.38;;;2.40;;
35442;SDS011;21561;55.654;37.592;2023-06-01T01:03:06;7.60;;;2.38;;
35442;SDS011;21561;55.654;37.592;2023-06-01T01:05:37;6.72;;;2.30;;
35442;SDS011;21561;55.654;37.592;2023-06-01T01:08:21;6.78;;;2.25;;
35442;SDS011;21561;55.654;37.592;2023-06-01T01:11:04;8.60;;;2.33;;
35442;SDS011;21561;55.654;37.592;2023-06-01T01:17:13;8.98;;;2.70;;
35442;SDS011;21561;55.654;37.592;2023-06-01T01:19:45;12.77;;;2.85;;
35442;SDS011;21561;55.654;37.592;2023-06-01T01:30:26;6.40;;;2.53;;
35442;SDS011;21561;55.654;37.592;2023-06-01T01:32:55;9.57;;;2.53;;
35442;SDS011;21561;55.654;37.592;2023-06-01T01:35:24;9.25;;;2.38;;
35442;SDS011;21561;55.654;37.592;2023-06-01T01:37:53;8.77;;;2.70;;
35442;SDS011;21561;55.654;37.592;2023-06-01T01:40:21;9.30;;;2.40;;
35442;SDS011;21561;55.654;37.592;2023-06-01T01:42:48;5.78;;;2.05;;
35442;SDS011;21561;55.654;37.592;2023-06-01T01:45:17;10.32;;;2.15;;
35442;SDS011;21561;55.654;37.592;2023-06-01T01:50:19;8.52;;;2.25;;
35442;SDS011;21561;55.654;37.592;2023-06-01T01:52:48;7.47;;;2.13;;
35442;SDS011;21561;55.654;37.592;2023-06-01T01:55:18;11.13;;;2.13;;
35442;SDS011;21561;55.654;37.592;2023-06-01T01:57:50;7.70;;;2.20;;
35442;SDS011;21561;55.654;37.592;2023-06-01T02:00:18;9.73;;;2.30;;
35442;SDS011;21561;55.654;37.592;2023-06-01T02:02:46;5.72;;;2.22;;
35442;SDS011;21561;55.654;37.592;2023-06-01T02:05:13;8.07;;;2.00;;
35442;SDS011;21561;55.654;37.592;2023-06-01T02:07:40;8.98;;;2.33;;
35442;SDS011;21561;55.654;37.592;2023-06-01T02:10:07;9.05;;;2.22;;
35442;SDS011;21561;55.654;37.592;2023-06-01T02:12:34;7.50;;;2.20;;
35442;SDS011;21561;55.654;37.592;2023-06-01T02:15:01;10.55;;;2.28;;
35442;SDS011;21561;55.654;37.592;2023-06-01T02:17:28;11.70;;;2.20;;
35442;SDS011;21561;55.654;37.592;2023-06-01T02:19:55;7.72;;;2.42;;
35442;SDS011;21561;55.654;37.592;2023-06-01T02:22:22;8.00;;;2.63;;
35442;SDS011;21561;55.654;37.592;2023-06-01T02:24:49;10.60;;;2.50;;
35442;SDS011;21561;55.654;37.592;2023-06-01T02:27:16;7.82;;;2.35;;
35442;SDS011;21561;55.654;37.592;2023-06-01T02:29:43;10.55;;;2.10;;
35442;SDS011;21561;55.654;37.592;2023-06-01T02:32:09;10.20;;;2.08;;
35442;SDS011;21561;55.654;37.592;2023-06-01T02:34:36;7.40;;;1.88;;
35442;SDS011;21561;55.654;37.592;2023-06-01T02:37:03;7.47;;;1.90;;
35442;SDS011;21561;55.654;37.592;2023-06-01T02:39:31;9.13;;;2.13;;
35442;SDS011;21561;55.654;37.592;2023-06-01T02:41:58;10.48;;;1.98;;
35442;SDS011;21561;55.654;37.592;2023-06-01T02:44:24;10.05;;;2.10;;
35442;SDS011;21561;55.654;37.592;2023-06-01T02:46:51;5.60;;;1.83;;
35442;SDS011;21561;55.654;37.592;2023-06-01T02:49:18;9.80;;;2.33;;
35442;SDS011;21561;55.654;37.592;2023-06-01T02:51:45;11.75;;;1.92;;
35442;SDS011;21561;55.654;37.592;2023-06-01T02:54:12;8.00;;;1.88;;
35442;SDS011;21561;55.654;37.592;2023-06-01T02:56:38;8.00;;;2.20;;
35442;SDS011;21561;55.654;37.592;2023-06-01T02:59:05;5.10;;;1.55;;
35442;SDS011;21561;55.654;37.592;2023-06-01T03:01:32;6.00;;;1.77;;
35442;SDS011;21561;55.654;37.592;2023-06-01T03:04:02;6.88;;;1.80;;
35442;SDS011;21561;55.654;37.592;2023-06-01T03:06:33;11.13;;;1.80;;
35442;SDS011;21561;55.654;37.592;2023-06-01T03:09:04;6.50;;;2.03;;
35442;SDS011;21561;55.654;37.592;2023-06-01T03:11:31;8.57;;;1.90;;
35442;SDS011;21561;55.654;37.592;2023-06-01T03:13:58;9.85;;;2.13;;
35442;SDS011;21561;55.654;37.592;2023-06-01T03:16:25;8.85;;;1.98;;
35442;SDS011;21561;55.654;37.592;2023-06-01T03:18:52;9.55;;;1.80;;
35442;SDS011;21561;55.654;37.592;2023-06-01T03:21:19;8.00;;;2.13;;
35442;SDS011;21561;55.654;37.592;2023-06-01T03:23:46;7.18;;;2.28;;
35442;SDS011;21561;55.654;37.592;2023-06-01T03:26:12;10.20;;;2.30;;
35442;SDS011;21561;55.654;37.592;2023-06-01T03:28:40;8.68;;;2.50;;
35442;SDS011;21561;55.654;37.592;2023-06-01T03:31:07;7.25;;;2.13;;
35442;SDS011;21561;55.654;37.592;2023-06-01T03:33:33;9.80;;;2.45;;
35442;SDS011;21561;55.654;37.592;2023-06-01T03:36:01;10.48;;;2.70;;
35442;SDS011;21561;55.654;37.592;2023-06-01T03:38:28;8.23;;;2.22;;
35442;SDS011;21561;55.654;37.592;2023-06-01T03:40:54;7.93;;;2.28;;
35442;SDS011;21561;55.654;37.592;2023-06-01T03:43:21;8.98;;;2.30;;
35442;SDS011;21561;55.654;37.592;2023-06-01T03:45:48;7.85;;;2.58;;
35442;SDS011;21561;55.654;37.592;2023-06-01T03:48:15;8.35;;;2.33;;
35442;SDS011;21561;55.654;37.592;2023-06-01T03:50:42;10.13;;;2.30;;
35442;SDS011;21561;55.654;37.592;2023-06-01T03:53:08;8.73;;;2.67;;
35442;SDS011;21561;55.654;37.592;2023-06-01T03:55:35;9.48;;;2.35;;
35442;SDS011;21561;55.654;37.592;2023-06-01T03:58:03;9.73;;;2.20;;
35442;SDS011;21561;55.654;37.592;2023-06-01T04:00:31;7.13;;;2.20;;
35442;SDS011;21561;55.654;37.592;2023-06-01T04:02:58;7.82;;;2.55;;
35442;SDS011;21561;55.654;37.592;2023-06-01T04:05:27;10.05;;;2.42;;
35442;SDS011;21561;55.654;37.592;2023-06-01T04:07:54;8.35;;;2.72;;
35442;SDS011;21561;55.654;37.592;2023-06-01T04:10:22;8.63;;;2.55;;
35442;SDS011;21561;55.654;37.592;2023-06-01T04:12:49;7.22;;;2.42;;
35442;SDS011;21561;55.654;37.592;2023-06-01T04:15:17;11.23;;;2.30;;
35442;SDS011;21561;55.654;37.592;2023-06-01T04:17:45;15.50;;;2.67;;
35442;SDS011;21561;55.654;37.592;2023-06-01T04:20:13;9.75;;;2.70;;
35442;SDS011;21561;55.654;37.592;2023-06-01T04:22:42;13.10;;;2.40;;
35442;SDS011;21561;55.654;37.592;2023-06-01T04:25:11;10.15;;;2.50;;
35442;SDS011;21561;55.654;37.592;2023-06-01T04:27:46;11.93;;;2.53;;
35442;SDS011;21561;55.654;37.592;2023-06-01T04:30:14;13.63;;;2.92;;
35442;SDS011;21561;55.654;37.592;2023-06-01T04:32:43;11.55;;;3.40;;
35442;SDS011;21561;55.654;37.592;2023-06-01T04:35:11;12.35;;;3.47;;
35442;SDS011;21561;55.654;37.592;2023-06-01T04:37:38;17.45;;;3.90;;
35442;SDS011;21561;55.654;37.592;2023-06-01T04:40:07;14.32;;;4.18;;
35442;SDS011;21561;55.654;37.592;2023-06-01T04:42:36;14.73;;;3.50;;
35442;SDS011;21561;55.654;37.592;2023-06-01T04:45:23;11.93;;;3.63;;
35442;SDS011;21561;55.654;37.592;2023-06-01T04:47:52;12.93;;;3.42;;
35442;SDS011;21561;55.654;37.592;2023-06-01T04:50:19;16.05;;;3.65;;
35442;SDS011;21561;55.654;37.592;2023-06-01T04:52:46;15.27;;;4.25;;
35442;SDS011;21561;55.654;37.592;2023-06-01T04:55:14;15.23;;;4.60;;
35442;SDS011;21561;55.654;37.592;2023-06-01T04:57:43;16.88;;;4.10;;
35442;SDS011;21561;55.654;37.592;2023-06-01T05:00:10;16.15;;;3.42;;
35442;SDS011;21561;55.654;37.592;2023-06-01T05:02:39;10.43;;;3.00;;
35442;SDS011;21561;55.654;37.592;2023-06-01T05:05:09;13.07;;;3.22;;
35442;SDS011;21561;55.654;37.592;2023-06-01T05:07:37;9.57;;;2.70;;
35442;SDS011;21561;55.654;37.592;2023-06-01T05:10:05;10.43;;;3.13;;
35442;SDS011;21561;55.654;37.592;2023-06-01T05:12:33;9.32;;;2.53;;
35442;SDS011;21561;55.654;37.592;2023-06-01T05:15:02;11.95;;;2.83;;
35442;SDS011;21561;55.654;37.592;2023-06-01T05:17:29;9.13;;;2.70;;
35442;SDS011;21561;55.654;37.592;2023-06-01T05:19:56;12.70;;;3.28;;
35442;SDS011;21561;55.654;37.592;2023-06-01T05:22:24;13.40;;;3.40;;
35442;SDS011;21561;55.654;37.592;2023-06-01T05:24:51;12.45;;;3.30;;
35442;SDS011;21561;55.654;37.592;2023-06-01T05:27:18;12.90;;;3.38;;
35442;SDS011;21561;55.654;37.592;2023-06-01T05:30:02;10.30;;;3.30;;
35442;SDS011;21561;55.654;37.592;2023-06-01T05:32:37;14.48;;;2.67;;
35442;SDS011;21561;55.654;37.592;2023-06-01T05:35:15;14.02;;;2.97;;
35442;SDS011;21561;55.654;37.592;2023-06-01T05:37:42;10.73;;;2.65;;
35442;SDS011;21561;55.654;37.592;2023-06-01T05:40:12;10.02;;;2.15;;
35442;SDS011;21561;55.654;37.592;2023-06-01T05:42:39;11.00;;;2.70;;
35442;SDS011;21561;55.654;37.592;2023-06-01T05:45:06;15.23;;;2.67;;
35442;SDS011;21561;55.654;37.592;2023-06-01T05:47:33;8.50;;;2.50;;
35442;SDS011;21561;55.654;37.592;2023-06-01T05:50:00;12.52;;;2.33;;
35442;SDS011;21561;55.654;37.592;2023-06-01T05:52:27;9.60;;;2.30;;
35442;SDS011;21561;55.654;37.592;2023-06-01T05:54:54;13.77;;;2.83;;
35442;SDS011;21561;55.654;37.592;2023-06-01T05:57:21;14.05;;;2.75;;
35442;SDS011;21561;55.654;37.592;2023-06-01T05:59:48;7.65;;;2.40;;
35442;SDS011;21561;55.654;37.592;2023-06-01T06:02:15;15.40;;;2.72;;
35442;SDS011;21561;55.654;37.592;2023-06-01T06:04:42;11.52;;;2.33;;
35442;SDS011;21561;55.654;37.592;2023-06-01T06:07:10;8.95;;;2.35;;
35442;SDS011;21561;55.654;37.592;2023-06-01T06:09:37;9.43;;;2.33;;
35442;SDS011;21561;55.654;37.592;2023-06-01T06:12:04;8.20;;;2.67;;
35442;SDS011;21561;55.654;37.592;2023-06-01T06:14:32;9.32;;;2.28;;
35442;SDS011;21561;55.654;37.592;2023-06-01T06:17:00;9.00;;;2.13;;
35442;SDS011;21561;55.654;37.592;2023-06-01T06:19:26;10.07;;;2.55;;
35442;SDS011;21561;55.654;37.592;2023-06-01T06:21:53;8.40;;;2.10;;
35442;SDS011;21561;55.654;37.592;2023-06-01T06:24:20;6.63;;;2.00;;
35442;SDS011;21561;55.654;37.592;2023-06-01T06:26:48;10.27;;;2.53;;
35442;SDS011;21561;55.654;37.592;2023-06-01T06:29:14;9.85;;;2.20;;
35442;SDS011;21561;55.654;37.592;2023-06-01T06:31:41;10.18;;;2.42;;
35442;SDS011;21561;55.654;37.592;2023-06-01T06:34:11;9.23;;;2.20;;
35442;SDS011;21561;55.654;37.592;2023-06-01T06:36:38;10.15;;;2.17;;
35442;SDS011;21561;55.654;37.592;2023-06-01T06:39:05;11.70;;;2.50;;
35442;SDS011;21561;55.654;37.592;2023-06-01T06:41:32;8.98;;;2.10;;
35442;SDS011;21561;55.654;37.592;2023-06-01T06:43:59;8.15;;;2.30;;
35442;SDS011;21561;55.654;37.592;2023-06-01T06:46:26;6.90;;;2.17;;
35442;SDS011;21561;55.654;37.592;2023-06-01T06:48:53;8.93;;;2.25;;
35442;SDS011;21561;55.654;37.592;2023-06-01T06:51:20;8.75;;;1.92;;
35442;SDS011;21561;55.654;37.592;2023-06-01T06:53:50;8.40;;;2.25;;
35442;SDS011;21561;55.654;37.592;2023-06-01T06:56:17;9.55;;;2.33;;
35442;SDS011;21561;55.654;37.592;2023-06-01T06:58:44;13.40;;;2.45;;
35442;SDS011;21561;55.654;37.592;2023-06-01T07:01:29;6.85;;;2.00;;
35442;SDS011;21561;55.654;37.592;2023-06-01T07:03:56;7.80;;;2.33;;
35442;SDS011;21561;55.654;37.592;2023-06-01T07:06:23;6.80;;;2.15;;
35442;SDS011;21561;55.654;37.592;2023-06-01T07:08:50;8.65;;;2.20;;
35442;SDS011;21561;55.654;37.592;2023-06-01T07:11:18;13.52;;;2.30;;
35442;SDS011;21561;55.654;37.592;2023-06-01T07:13:45;13.00;;;2.15;;
35442;SDS011;21561;55.654;37.592;2023-06-01T07:16:12;10.32;;;1.90;;
35442;SDS011;21561;55.654;37.592;2023-06-01T07:18:39;5.22;;;1.80;;
35442;SDS011;21561;55.654;37.592;2023-06-01T07:21:06;6.47;;;2.05;;
35442;SDS011;21561;55.654;37.592;2023-06-01T07:23:32;5.32;;;1.92;;
35442;SDS011;21561;55.654;37.592;2023-06-01T07:26:05;5.15;;;1.90;;
35442;SDS011;21561;55.654;37.592;2023-06-01T07:28:32;10.07;;;2.05;;
35442;SDS011;21561;55.654;37.592;2023-06-01T07:30:59;8.25;;;1.92;;
35442;SDS011;21561;55.654;37.592;2023-06-01T07:33:29;6.25;;;2.10;;
35442;SDS011;21561;55.654;37.592;2023-06-01T07:35:57;7.20;;;1.98;;
35442;SDS011;21561;55.654;37.592;2023-06-01T07:38:24;12.63;;;2.35;;
35442;SDS011;21561;55.654;37.592;2023-06-01T07:40:51;11.05;;;2.22;;
35442;SDS011;21561;55.654;37.592;2023-06-01T07:43:18;7.53;;;1.95;;
35442;SDS011;21561;55.654;37.592;2023-06-01T07:45:45;6.22;;;2.03;;
35442;SDS011;21561;55.654;37.592;2023-06-01T07:48:12;5.55;;;1.80;;
35442;SDS011;21561;55.654;37.592;2023-06-01T07:50:39;12.35;;;2.17;;
35442;SDS011;21561;55.654;37.592;2023-06-01T07:53:06;7.38;;;2.03;;
35442;SDS011;21561;55.654;37.592;2023-06-01T07:55:33;8.43;;;2.08;;
35442;SDS011;21561;55.654;37.592;2023-06-01T07:58:00;9.02;;;2.10;;
35442;SDS011;21561;55.654;37.592;2023-06-01T08:00:27;9.82;;;2.58;;
35442;SDS011;21561;55.654;37.592;2023-06-01T08:02:54;9.65;;;2.08;;
35442;SDS011;21561;55.654;37.592;2023-06-01T08:05:22;9.73;;;2.13;;
35442;SDS011;21561;55.654;37.592;2023-06-01T08:07:48;8.80;;;2.10;;
35442;SDS011;21561;55.654;37.592;2023-06-01T08:10:16;9.00;;;2.00;;
35442;SDS011;21561;55.654;37.592;2023-06-01T08:12:43;5.95;;;1.85;;
35442;SDS011;21561;55.654;37.592;2023-06-01T08:15:10;11.95;;;2.90;;
35442;SDS011;21561;55.654;37.592;2023-06-01T08:17:38;17.50;;;2.83;;
35442;SDS011;21561;55.654;37.592;2023-06-01T08:20:05;16.17;;;2.53;;
35442;SDS011;21561;55.654;37.592;2023-06-01T08:22:37;7.85;;;2.20;;
35442;SDS011;21561;55.654;37.592;2023-06-01T08:25:04;11.93;;;2.30;;
35442;SDS011;21561;55.654;37.592;2023-06-01T08:27:32;11.90;;;2.00;;
35442;SDS011;21561;55.654;37.592;2023-06-01T08:29:58;8.45;;;2.13;;
35442;SDS011;21561;55.654;37.592;2023-06-01T08:32:25;13.38;;;2.70;;
35442;SDS011;21561;55.654;37.592;2023-06-01T08:34:52;13.55;;;2.28;;
35442;SDS011;21561;55.654;37.592;2023-06-01T08:37:19;7.28;;;1.92;;
35442;SDS011;21561;55.654;37.592;2023-06-01T08:39:46;8.15;;;2.35;;
35442;SDS011;21561;55.654;37.592;2023-06-01T08:42:26;6.40;;;1.73;;
35442;SDS011;21561;55.654;37.592;2023-06-01T08:45:00;9.35;;;2.10;;
35442;SDS011;21561;55.654;37.592;2023-06-01T08:47:31;11.97;;;2.20;;
35442;SDS011;21561;55.654;37.592;2023-06-01T08:49:59;9.65;;;2.03;;
35442;SDS011;21561;55.654;37.592;2023-06-01T08:52:26;7.38;;;2.10;;
35442;SDS011;21561;55.654;37.592;2023-06-01T08:54:55;7.13;;;1.90;;
35442;SDS011;21561;55.654;37.592;2023-06-01T08:57:24;9.70;;;2.10;;
35442;SDS011;21561;55.654;37.592;2023-06-01T08:59:52;8.50;;;1.98;;
35442;SDS011;21561;55.654;37.592;2023-06-01T09:02:19;6.65;;;1.90;;
35442;SDS011;21561;55.654;37.592;2023-06-01T09:04:45;10.43;;;2.72;;
35442;SDS011;21561;55.654;37.592;2023-06-01T09:07:12;7.40;;;2.00;;
35442;SDS011;21561;55.654;37.592;2023-06-01T09:09:40;12.18;;;2.83;;
35442;SDS011;21561;55.654;37.592;2023-06-01T09:12:20;12.50;;;2.20;;
35442;SDS011;21561;55.654;37.592;2023-06-01T09:17:51;12.30;;;2.17;;
35442;SDS011;21561;55.654;37.592;2023-06-01T09:20:25;8.38;;;2.03;;
35442;SDS011;21561;55.654;37.592;2023-06-01T09:22:54;19.90;;;2.78;;
35442;SDS011;21561;55.654;37.592;2023-06-01T09:25:25;8.05;;;2.10;;
35442;SDS011;21561;55.654;37.592;2023-06-01T09:30:21;12.02;;;2.15;;
35442;SDS011;21561;55.654;37.592;2023-06-01T09:32:50;8.40;;;1.95;;
35442;SDS011;21561;55.654;37.592;2023-06-01T09:35:45;7.32;;;2.08;;
35442;SDS011;21561;55.654;37.592;2023-06-01T09:38:20;5.95;;;1.90;;
35442;SDS011;21561;55.654;37.592;2023-06-01T09:40:58;9.05;;;2.00;;
35442;SDS011;21561;55.654;37.592;2023-06-01T09:43:27;12.15;;;2.42;;
35442;SDS011;21561;55.654;37.592;2023-06-01T09:46:07;6.80;;;2.10;;
35442;SDS011;21561;55.654;37.592;2023-06-01T09:48:41;8.88;;;2.22;;
35442;SDS011;21561;55.654;37.592;2023-06-01T09:51:32;12.88;;;2.22;;
35442;SDS011;21561;55.654;37.592;2023-06-01T09:53:57;10.00;;;2.20;;
35442;SDS011;21561;55.654;37.592;2023-06-01T09:56:24;8.38;;;2.30;;
35442;SDS011;21561;55.654;37.592;2023-06-01T09:58:58;11.77;;;2.33;;
35442;SDS011;21561;55.654;37.592;2023-06-01T10:01:29;8.98;;;2.22;;
35442;SDS011;21561;55.654;37.592;2023-06-01T10:03:58;7.78;;;2.05;;
35442;SDS011;21561;55.654;37.592;2023-06-01T10:06:27;7.65;;;2.05;;
35442;SDS011;21561;55.654;37.592;2023-06-01T10:08:57;9.98;;;2.35;;
35442;SDS011;21561;55.654;37.592;2023-06-01T10:11:24;11.60;;;2.33;;
35442;SDS011;21561;55.654;37.592;2023-06-01T10:13:53;8.35;;;2.00;;
35442;SDS011;21561;55.654;37.592;2023-06-01T10:16:23;10.55;;;1.92;;
35442;SDS011;21561;55.654;37.592;2023-06-01T10:18:50;7.82;;;1.77;;
35442;SDS011;21561;55.654;37.592;2023-06-01T10:21:18;9.52;;;2.25;;
35442;SDS011;21561;55.654;37.592;2023-06-01T10:23:45;7.18;;;2.25;;
35442;SDS011;21561;55.654;37.592;2023-06-01T10:26:12;6.13;;;1.83;;
35442;SDS011;21561;55.654;37.592;2023-06-01T10:28:42;8.38;;;2.40;;
35442;SDS011;21561;55.654;37.592;2023-06-01T10:34:04;9.52;;;2.08;;
35442;SDS011;21561;55.654;37.592;2023-06-01T10:39:24;8.23;;;2.50;;
35442;SDS011;21561;55.654;37.592;2023-06-01T10:41:57;6.63;;;1.95;;
35442;SDS011;21561;55.654;37.592;2023-06-01T10:44:50;8.13;;;2.30;;
35442;SDS011;21561;55.654;37.592;2023-06-01T10:54:54;5.75;;;2.13;;
35442;SDS011;21561;55.654;37.592;2023-06-01T10:57:42;7.10;;;2.25;;
35442;SDS011;21561;55.654;37.592;2023-06-01T11:06:11;7.32;;;2.20;;
35442;SDS011;21561;55.654;37.592;2023-06-01T11:18:46;7.72;;;2.25;;
35442;SDS011;21561;55.654;37.592;2023-06-01T11:21:25;8.95;;;2.33;;
35442;SDS011;21561;55.654;37.592;2023-06-01T11:23:55;10.30;;;2.20;;
35442;SDS011;21561;55.654;37.592;2023-06-01T11:26:24;10.45;;;2.40;;
35442;SDS011;21561;55.654;37.592;2023-06-01T11:29:05;12.30;;;2.28;;
35442;SDS011;21561;55.654;37.592;2023-06-01T11:31:35;10.63;;;2.17;;
35442;SDS011;21561;55.654;37.592;2023-06-01T11:34:04;10.43;;;2.15;;
35442;SDS011;21561;55.654;37.592;2023-06-01T11:36:35;10.73;;;2.40;;
35442;SDS011;21561;55.654;37.592;2023-06-01T11:39:03;9.35;;;2.60;;
35442;SDS011;21561;55.654;37.592;2023-06-01T11:41:46;9.48;;;2.10;;
35442;SDS011;21561;55.654;37.592;2023-06-01T11:44:13;10.60;;;2.65;;
35442;SDS011;21561;55.654;37.592;2023-06-01T11:46:54;9.13;;;2.28;;
35442;SDS011;21561;55.654;37.592;2023-06-01T11:49:23;15.27;;;2.75;;
35442;SDS011;21561;55.654;37.592;2023-06-01T11:51:50;6.50;;;2.38;;
35442;SDS011;21561;55.654;37.592;2023-06-01T11:54:21;5.40;;;2.30;;
35442;SDS011;21561;55.654;37.592;2023-06-01T11:56:49;12.05;;;2.50;;
35442;SDS011;21561;55.654;37.592;2023-06-01T11:59:16;8.05;;;2.60;;
35442;SDS011;21561;55.654;37.592;2023-06-01T12:01:43;11.68;;;2.40;;
35442;SDS011;21561;55.654;37.592;2023-06-01T12:04:12;7.85;;;2.30;;
35442;SDS011;21561;55.654;37.592;2023-06-01T12:06:43;10.48;;;2.35;;
35442;SDS011;21561;55.654;37.592;2023-06-01T12:09:11;9.02;;;2.40;;
35442;SDS011;21561;55.654;37.592;2023-06-01T12:11:39;13.18;;;2.63;;
35442;SDS011;21561;55.654;37.592;2023-06-01T12:14:11;8.13;;;2.22;;
35442;SDS011;21561;55.654;37.592;2023-06-01T12:16:56;11.07;;;2.60;;
35442;SDS011;21561;55.654;37.592;2023-06-01T12:19:25;7.35;;;2.35;;
35442;SDS011;21561;55.654;37.592;2023-06-01T12:21:54;11.73;;;2.45;;
35442;SDS011;21561;55.654;37.592;2023-06-01T12:24:26;9.65;;;2.55;;
35442;SDS011;21561;55.654;37.592;2023-06-01T12:27:00;10.07;;;2.60;;
35442;SDS011;21561;55.654;37.592;2023-06-01T12:29:40;10.65;;;2.80;;
35442;SDS011;21561;55.654;37.592;2023-06-01T12:32:09;9.82;;;2.75;;
35442;SDS011;21561;55.654;37.592;2023-06-01T12:34:38;7.68;;;2.50;;
35442;SDS011;21561;55.654;37.592;2023-06-01T12:37:12;11.18;;;2.60;;
35442;SDS011;21561;55.654;37.592;2023-06-01T12:39:52;11.52;;;2.45;;
35442;SDS011;21561;55.654;37.592;2023-06-01T12:42:32;8.95;;;2.90;;
35442;SDS011;21561;55.654;37.592;2023-06-01T12:45:04;13.57;;;2.70;;
35442;SDS011;21561;55.654;37.592;2023-06-01T12:47:38;10.67;;;2.60;;
35442;SDS011;21561;55.654;37.592;2023-06-01T12:50:07;8.80;;;2.40;;
35442;SDS011;21561;55.654;37.592;2023-06-01T12:52:36;9.32;;;2.53;;
35442;SDS011;21561;55.654;37.592;2023-06-01T12:55:03;10.85;;;2.83;;
35442;SDS011;21561;55.654;37.592;2023-06-01T12:57:31;9.82;;;2.88;;
35442;SDS011;21561;55.654;37.592;2023-06-01T12:59:59;9.82;;;2.65;;
35442;SDS011;21561;55.654;37.592;2023-06-01T13:02:26;8.50;;;2.60;;
35442;SDS011;21561;55.654;37.592;2023-06-01T13:04:53;13.52;;;2.55;;
35442;SDS011;21561;55.654;37.592;2023-06-01T13:07:20;14.45;;;2.63;;
35442;SDS011;21561;55.654;37.592;2023-06-01T13:09:50;8.70;;;2.20;;
35442;SDS011;21561;55.654;37.592;2023-06-01T13:12:20;9.77;;;2.53;;
35442;SDS011;21561;55.654;37.592;2023-06-01T13:14:46;10.20;;;2.17;;
35442;SDS011;21561;55.654;37.592;2023-06-01T13:17:14;11.43;;;2.10;;
35442;SDS011;21561;55.654;37.592;2023-06-01T13:19:41;8.32;;;2.20;;
35442;SDS011;21561;55.654;37.592;2023-06-01T13:22:10;10.30;;;2.33;;
35442;SDS011;21561;55.654;37.592;2023-06-01T13:24:37;14.98;;;2.47;;
35442;SDS011;21561;55.654;37.592;2023-06-01T13:27:24;10.65;;;2.35;;
35442;SDS011;21561;55.654;37.592;2023-06-01T13:29:51;7.32;;;2.30;;
35442;SDS011;21561;55.654;37.592;2023-06-01T13:32:18;8.50;;;2.38;;
35442;SDS011;21561;55.654;37.592;2023-06-01T13:34:45;9.07;;;2.20;;
35442;SDS011;21561;55.654;37.592;2023-06-01T13:37:12;12.70;;;2.58;;
35442;SDS011;21561;55.654;37.592;2023-06-01T13:39:39;13.23;;;2.78;;
35442;SDS011;21561;55.654;37.592;2023-06-01T13:42:06;8.90;;;2.50;;
35442;SDS011;21561;55.654;37.592;2023-06-01T13:44:33;10.80;;;2.50;;
35442;SDS011;21561;55.654;37.592;2023-06-01T13:47:00;9.27;;;2.78;;
35442;SDS011;21561;55.654;37.592;2023-06-01T13:49:28;9.00;;;2.28;;
35442;SDS011;21561;55.654;37.592;2023-06-01T13:51:55;13.75;;;2.40;;
35442;SDS011;21561;55.654;37.592;2023-06-01T13:54:22;6.55;;;2.13;;
35442;SDS011;21561;55.654;37.592;2023-06-01T13:56:49;12.02;;;2.50;;
35442;SDS011;21561;55.654;37.592;2023-06-01T13:59:16;11.25;;;2.95;;
35442;SDS011;21561;55.654;37.592;2023-06-01T14:01:43;11.57;;;2.80;;
35442;SDS011;21561;55.654;37.592;2023-06-01T14:04:10;11.95;;;2.60;;
35442;SDS011;21561;55.654;37.592;2023-06-01T14:06:37;11.05;;;2.80;;
35442;SDS011;21561;55.654;37.592;2023-06-01T14:09:04;10.55;;;2.33;;
35442;SDS011;21561;55.654;37.592;2023-06-01T14:11:31;12.45;;;2.50;;
35442;SDS011;21561;55.654;37.592;2023-06-01T14:13:58;10.73;;;2.58;;
35442;SDS011;21561;55.654;37.592;2023-06-01T14:16:25;12.55;;;3.30;;
35442;SDS011;21561;55.654;37.592;2023-06-01T14:18:51;11.95;;;2.90;;
35442;SDS011;21561;55.654;37.592;2023-06-01T14:21:18;11.85;;;2.50;;
35442;SDS011;21561;55.654;37.592;2023-06-01T14:23:46;15.68;;;2.72;;
35442;SDS011;21561;55.654;37.592;2023-06-01T14:26:13;11.70;;;2.58;;
35442;SDS011;21561;55.654;37.592;2023-06-01T14:28:40;8.43;;;2.47;;
35442;SDS011;21561;55.654;37.592;2023-06-01T14:31:07;13.27;;;2.78;;
35442;SDS011;21561;55.654;37.592;2023-06-01T14:33:34;12.82;;;2.35;;
35442;SDS011;21561;55.654;37.592;2023-06-01T14:36:01;10.88;;;2.88;;
35442;SDS011;21561;55.654;37.592;2023-06-01T14:38:30;10.60;;;2.47;;
35442;SDS011;21561;55.654;37.592;2023-06-01T14:40:57;12.05;;;2.80;;
35442;SDS011;21561;55.654;37.592;2023-06-01T14:43:23;11.85;;;2.83;;
35442;SDS011;21561;55.654;37.592;2023-06-01T14:45:50;13.45;;;2.65;;
35442;SDS011;21561;55.654;37.592;2023-06-01T14:48:17;9.20;;;2.55;;
35442;SDS011;21561;55.654;37.592;2023-06-01T14:50:45;11.38;;;2.80;;
35442;SDS011;21561;55.654;37.592;2023-06-01T14:53:11;13.25;;;2.60;;
35442;SDS011;21561;55.654;37.592;2023-06-01T14:55:39;16.77;;;2.90;;
35442;SDS011;21561;55.654;37.592;2023-06-01T14:58:07;16.92;;;3.03;;
35442;SDS011;21561;55.654;37.592;2023-06-01T15:00:34;7.75;;;2.33;;
35442;SDS011;21561;55.654;37.592;2023-06-01T15:03:03;13.07;;;2.50;;
35442;SDS011;21561;55.654;37.592;2023-06-01T15:05:31;11.05;;;2.70;;
35442;SDS011;21561;55.654;37.592;2023-06-01T15:07:58;12.15;;;3.05;;
35442;SDS011;21561;55.654;37.592;2023-06-01T15:10:25;7.97;;;2.40;;
35442;SDS011;21561;55.654;37.592;2023-06-01T15:12:52;13.30;;;2.75;;
35442;SDS011;21561;55.654;37.592;2023-06-01T15:15:19;12.82;;;2.28;;
35442;SDS011;21561;55.654;37.592;2023-06-01T15:17:46;10.98;;;2.97;;
35442;SDS011;21561;55.654;37.592;2023-06-01T15:20:13;11.65;;;2.63;;
35442;SDS011;21561;55.654;37.592;2023-06-01T15:22:40;14.38;;;2.50;;
35442;SDS011;21561;55.654;37.592;2023-06-01T15:25:07;10.25;;;2.83;;
35442;SDS011;21561;55.654;37.592;2023-06-01T15:27:36;13.60;;;2.83;;